Time,TemperatureF,DewpointF,PressureIn,WindDirection,WindDirectionDegrees,WindSpeedMPH,WindSpeedGustMPH,Humidity,HourlyPrecipIn,Conditions,Clouds,dailyrainin,SolarRadiationWatts/m^2,SoftwareType,DateUTC
2014-08-30 00:34:00,78.0,71.0,-100.00,SSE,166,5.0,7.0,78,0.00,,,0.00,0.000000,,2014-08-30 05:34:00,
2014-08-30 01:22:00,77.0,71.0,-100.00,SSE,153,5.0,8.0,81,0.00,,,0.00,0.000000,,2014-08-30 06:22:00,
2014-08-30 02:22:00,77.0,72.0,-100.00,SE,134,5.0,9.0,84,0.00,,,0.00,0.000000,,2014-08-30 07:22:00,
2014-08-30 02:33:00,77.0,72.0,-100.00,SE,134,5.0,9.0,84,0.00,,,0.00,0.000000,,2014-08-30 07:33:00,
2014-08-30 02:42:00,77.0,72.0,-100.00,SE,134,5.0,9.0,84,0.00,,,0.00,0.000000,,2014-08-30 07:42:00,
2014-08-30 02:52:00,77.0,72.0,-100.00,SE,134,5.0,9.0,84,0.00,,,0.00,0.000000,,2014-08-30 07:52:00,
2014-08-30 03:22:00,76.0,70.0,-100.00,SE,146,8.0,13.0,81,0.00,,,0.00,0.000000,,2014-08-30 08:22:00,
2014-08-30 03:33:00,76.0,70.0,-100.00,SE,146,8.0,13.0,81,0.00,,,0.00,0.000000,,2014-08-30 08:33:00,
2014-08-30 04:23:00,76.0,71.0,-100.00,SE,139,7.0,12.0,84,0.00,,,0.00,0.000000,,2014-08-30 09:23:00,
2014-08-30 04:33:00,76.0,71.0,-100.00,SE,139,7.0,12.0,84,0.00,,,0.00,0.000000,,2014-08-30 09:33:00,
2014-08-30 04:44:00,76.0,71.0,-100.00,SE,139,7.0,12.0,84,0.00,,,0.00,0.000000,,2014-08-30 09:44:00,
2014-08-30 04:53:00,76.0,71.0,-100.00,SE,139,7.0,12.0,84,0.00,,,0.00,0.000000,,2014-08-30 09:53:00,
2014-08-30 05:24:00,74.0,72.0,-100.00,SE,136,6.0,12.0,92,0.00,,,0.00,0.000000,,2014-08-30 10:24:00,
2014-08-30 05:33:00,74.0,72.0,-100.00,SE,136,6.0,12.0,92,0.00,,,0.00,0.000000,,2014-08-30 10:33:00,
2014-08-30 05:53:00,74.0,72.0,-100.00,SE,136,6.0,12.0,92,0.00,,,0.00,0.000000,,2014-08-30 10:53:00,
2014-08-30 06:34:00,74.0,73.0,-100.00,ESE,108,3.0,10.0,97,0.00,,,0.00,0.000000,,2014-08-30 11:34:00,
2014-08-30 06:43:00,74.0,73.0,-100.00,ESE,108,3.0,10.0,97,0.00,,,0.00,0.000000,,2014-08-30 11:43:00,
2014-08-30 06:52:00,74.0,73.0,-100.00,ESE,108,3.0,10.0,97,0.00,,,0.00,0.000000,,2014-08-30 11:52:00,
2014-08-30 07:22:00,74.0,74.0,-100.00,ESE,116,5.0,7.0,100,0.00,,,0.00,0.000000,,2014-08-30 12:22:00,
2014-08-30 07:43:00,74.0,74.0,-100.00,ESE,116,5.0,7.0,100,0.00,,,0.00,0.000000,,2014-08-30 12:43:00,
2014-08-30 07:52:00,74.0,74.0,-100.00,ESE,116,5.0,7.0,100,0.00,,,0.00,0.000000,,2014-08-30 12:52:00,
2014-08-30 08:22:00,74.0,74.0,-100.00,East,92,2.0,7.0,100,0.00,,,0.00,0.000000,,2014-08-30 13:22:00,
2014-08-30 08:53:00,74.0,74.0,-100.00,East,92,2.0,7.0,100,0.00,,,0.00,0.000000,,2014-08-30 13:53:00,
2014-08-30 09:33:00,76.0,76.0,-100.00,ESE,123,6.0,8.0,100,0.00,,,0.00,0.000000,,2014-08-30 14:33:00,
2014-08-30 09:43:00,76.0,76.0,-100.00,ESE,123,6.0,8.0,100,0.00,,,0.00,0.000000,,2014-08-30 14:43:00,
2014-08-30 10:22:00,77.0,77.0,-100.00,SE,131,7.0,10.0,100,0.00,,,0.00,0.000000,,2014-08-30 15:22:00,
2014-08-30 10:34:00,77.0,77.0,-100.00,SE,131,7.0,10.0,100,0.00,,,0.00,0.000000,,2014-08-30 15:34:00,
2014-08-30 10:44:00,77.0,77.0,-100.00,SE,131,7.0,10.0,100,0.00,,,0.00,0.000000,,2014-08-30 15:44:00,
2014-08-30 10:55:00,77.0,77.0,-100.00,SE,131,7.0,10.0,100,0.00,,,0.00,0.000000,,2014-08-30 15:55:00,
2014-08-30 11:34:00,78.0,77.0,-100.00,ESE,119,6.0,10.0,96,0.00,,,0.00,0.000000,,2014-08-30 16:34:00,
2014-08-30 11:43:00,78.0,77.0,-100.00,ESE,119,6.0,10.0,96,0.00,,,0.00,0.000000,,2014-08-30 16:43:00,
2014-08-30 11:54:00,78.0,77.0,-100.00,ESE,119,6.0,10.0,96,0.00,,,0.00,0.000000,,2014-08-30 16:54:00,
2014-08-30 12:24:00,76.0,73.0,-100.00,ESE,111,12.0,19.0,91,0.00,,,0.00,0.000000,,2014-08-30 17:24:00,
2014-08-30 12:34:00,76.0,73.0,-100.00,ESE,111,12.0,19.0,91,0.00,,,0.00,0.000000,,2014-08-30 17:34:00,
2014-08-30 13:22:00,77.0,77.0,-100.00,East,97,6.0,14.0,100,0.03,,,0.03,0.000000,,2014-08-30 18:22:00,
2014-08-30 13:34:00,77.0,77.0,-100.00,East,97,6.0,14.0,100,0.03,,,0.03,0.000000,,2014-08-30 18:34:00,
2014-08-30 13:52:00,77.0,77.0,-100.00,East,97,6.0,14.0,100,0.03,,,0.03,0.000000,,2014-08-30 18:52:00,
2014-08-30 14:23:00,78.0,74.0,-100.00,East,99,8.0,11.0,89,0.00,,,0.03,0.000000,,2014-08-30 19:23:00,
2014-08-30 14:43:00,78.0,74.0,-100.00,East,99,8.0,11.0,89,0.00,,,0.03,0.000000,,2014-08-30 19:43:00,
2014-08-30 14:52:00,78.0,74.0,-100.00,East,99,8.0,11.0,89,0.00,,,0.03,0.000000,,2014-08-30 19:52:00,
2014-08-30 15:23:00,77.0,74.0,-100.00,East,87,4.0,11.0,89,0.00,,,0.03,0.000000,,2014-08-30 20:23:00,
2014-08-30 15:33:00,77.0,74.0,-100.00,East,87,4.0,11.0,89,0.00,,,0.03,0.000000,,2014-08-30 20:33:00,
2014-08-30 15:42:00,77.0,74.0,-100.00,East,87,4.0,11.0,89,0.00,,,0.03,0.000000,,2014-08-30 20:42:00,
2014-08-30 15:52:00,77.0,74.0,-100.00,East,87,4.0,11.0,89,0.00,,,0.03,0.000000,,2014-08-30 20:52:00,
2014-08-30 16:22:00,78.0,74.0,-100.00,ESE,118,5.0,11.0,89,0.00,,,0.03,0.000000,,2014-08-30 21:22:00,
2014-08-30 16:44:00,78.0,74.0,-100.00,ESE,118,5.0,11.0,89,0.00,,,0.03,0.000000,,2014-08-30 21:44:00,
2014-08-30 16:54:00,78.0,74.0,-100.00,ESE,118,5.0,11.0,89,0.00,,,0.03,0.000000,,2014-08-30 21:54:00,
2014-08-30 17:23:00,80.0,76.0,-100.00,SE,124,5.0,9.0,88,0.00,,,0.03,0.000000,,2014-08-30 22:23:00,
2014-08-30 17:33:00,80.0,76.0,-100.00,SE,124,5.0,9.0,88,0.00,,,0.03,0.000000,,2014-08-30 22:33:00,
2014-08-30 17:43:00,80.0,76.0,-100.00,SE,124,5.0,9.0,88,0.00,,,0.03,0.000000,,2014-08-30 22:43:00,
2014-08-30 18:23:00,81.0,74.0,-100.00,SE,129,6.0,10.0,80,0.00,,,0.03,0.000000,,2014-08-30 23:23:00,